Wetterdaten: aktuell Sonntag, 13.06.2021 14:05
Datum Zeit Temp. A. Feuchte A. Luftdruck Regen Wind Taupunkt Windchill Windben
13.06.2021 14:05 21,7 C 39 % 1025,2 hPa 0,0 l/m 6,8 km/h (2 Bft) 7,1 C 21,6 C 14,5 km/h (3 Bft)
13.06.2021 14:00 21,6 C 40 % 1025,3 hPa 0,0 l/m 6,2 km/h (2 Bft) 7,4 C 21,6 C 14,5 km/h (3 Bft)
13.06.2021 13:55 21,3 C 40 % 1025,2 hPa 0,0 l/m 4,4 km/h (1 Bft) 7,1 C 21,3 C 14,5 km/h (3 Bft)
13.06.2021 13:50 21,1 C 39 % 1025,3 hPa 0,0 l/m 7,6 km/h (2 Bft) 6,6 C 20,7 C 16,1 km/h (3 Bft)
13.06.2021 13:45 21,0 C 39 % 1025,3 hPa 0,0 l/m 7,6 km/h (2 Bft) 6,5 C 20,5 C 16,1 km/h (3 Bft)
13.06.2021 13:40 20,9 C 38 % 1025,3 hPa 0,0 l/m 7,9 km/h (2 Bft) 6,0 C 20,3 C 16,1 km/h (3 Bft)
13.06.2021 13:35 21,0 C 42 % 1025,4 hPa 0,0 l/m 8,6 km/h (2 Bft) 7,6 C 20,2 C 17,7 km/h (3 Bft)
13.06.2021 13:30 21,1 C 39 % 1025,5 hPa 0,0 l/m 6,6 km/h (2 Bft) 6,6 C 21,0 C 16,1 km/h (3 Bft)
13.06.2021 13:25 20,8 C 39 % 1025,5 hPa 0,0 l/m 7,0 km/h (2 Bft) 6,3 C 20,6 C 17,7 km/h (3 Bft)
13.06.2021 13:20 20,7 C 40 % 1025,5 hPa 0,0 l/m 7,4 km/h (2 Bft) 6,6 C 20,3 C 16,1 km/h (3 Bft)
13.06.2021 13:15 20,6 C 42 % 1025,5 hPa 0,0 l/m 7,0 km/h (2 Bft) 7,2 C 20,4 C 17,7 km/h (3 Bft)
13.06.2021 13:10 20,4 C 41 % 1025,5 hPa 0,0 l/m 3,8 km/h (1 Bft) 6,7 C 20,4 C 12,9 km/h (3 Bft)
13.06.2021 13:05 20,3 C 40 % 1025,4 hPa 0,0 l/m 6,3 km/h (2 Bft) 6,3 C 20,3 C 14,5 km/h (3 Bft)
13.06.2021 13:00 20,2 C 40 % 1025,5 hPa 0,0 l/m 9,2 km/h (2 Bft) 6,2 C 19,1 C 16,1 km/h (3 Bft)
13.06.2021 12:55 20,1 C 41 % 1025,6 hPa 0,0 l/m 7,5 km/h (2 Bft) 6,4 C 19,7 C 16,1 km/h (3 Bft)
13.06.2021 12:50 19,9 C 40 % 1025,5 hPa 0,0 l/m 7,1 km/h (2 Bft) 5,9 C 19,6 C 17,7 km/h (3 Bft)
13.06.2021 12:45 20,0 C 37 % 1025,6 hPa 0,0 l/m 7,3 km/h (2 Bft) 4,9 C 19,6 C 14,5 km/h (3 Bft)
13.06.2021 12:40 20,1 C 41 % 1025,6 hPa 0,0 l/m 8,7 km/h (2 Bft) 6,4 C 19,2 C 16,1 km/h (3 Bft)
13.06.2021 12:35 19,9 C 40 % 1025,6 hPa 0,0 l/m 12,4 km/h (3 Bft) 5,9 C 17,8 C 24,1 km/h (4 Bft)
13.06.2021 12:30 19,8 C 43 % 1025,6 hPa 0,0 l/m 7,9 km/h (2 Bft) 6,9 C 19,2 C 17,7 km/h (3 Bft)
13.06.2021 12:25 19,8 C 41 % 1025,6 hPa 0,0 l/m 6,9 km/h (2 Bft) 6,2 C 19,6 C 14,5 km/h (3 Bft)
_ Min-Zeit 06:00 12:45 00:00 - 02:30 09:30 05:30 05:00
Minimum _ 10,6 C 37 % 1020,6 hPa - 1,6 km/h (1 Bft) 3,5 C 10,7 C 4,8 km/h (1 Bft)
_ Max-Zeit 14:05 06:00 11:00 00:00 12:35 00:00 14:00 12:35
Maximum _ 21,7 C 67 % 1025,6 hPa 0,0 l/m 12,4 km/h
N (3 Bft)
7,8 C 21,6 C 24,1 km/h
N-NW (4 Bft)
Durchschnitt _ 15,4 C 52 % 1023,9 hPa #0,0 l/m 5,1 km/h (1 Bft) 5,4 C 15,2 C 12,9 km/h (3 Bft)